Time;durP1;ratioP1;P1;durP2;ratioP2;P2;SDS_P1;SDS_P2;PMS_P1;PMS_P2;Temp;Humidity;BMP_temperature;BMP_pressure;BME280_temperature;BME280_humidity;BME280_pressure;Samples;Min_cycle;Max_cycle;Signal;HPM_P1;HPM_P2
2023/05/03 00:01:37;;;;;;;21.50;20.00;;;;;;;;;;5057804;28;20417;-79
2023/05/03 00:04:05;;;;;;;20.83;19.80;;;;;;;;;;5057470;28;20508;-79
2023/05/03 00:06:32;;;;;;;22.47;21.17;;;;;;;;;;5056326;28;20879;-80
2023/05/03 00:09:01;;;;;;;20.60;19.40;;;;;;;;;;5057378;28;20466;-79
2023/05/03 00:11:28;;;;;;;20.60;19.20;;;;;;;;;;5057281;28;20455;-79
2023/05/03 00:13:55;;;;;;;19.50;18.50;;;;;;;;;;5056990;28;20475;-79
2023/05/03 00:16:22;;;;;;;20.13;19.03;;;;;;;;;;5056048;28;20967;-79
2023/05/03 00:18:49;;;;;;;20.43;19.43;;;;;;;;;;5056879;28;20995;-79
2023/05/03 00:21:16;;;;;;;20.20;19.10;;;;;;;;;;5056638;28;20443;-79
2023/05/03 00:23:43;;;;;;;20.57;19.57;;;;;;;;;;5056797;28;20450;-79
2023/05/03 00:26:11;;;;;;;21.70;20.40;;;;;;;;;;5055496;28;20466;-78
2023/05/03 00:28:38;;;;;;;21.67;20.57;;;;;;;;;;5055763;28;20482;-80
2023/05/03 00:31:09;;;;;;;20.40;19.20;;;;;;;;;;5056150;28;20483;-79
2023/05/03 00:33:36;;;;;;;21.80;20.50;;;;;;;;;;5056185;28;20950;-80
2023/05/03 00:36:09;;;;;;;21.30;20.10;;;;;;;;;;5055584;28;20539;-79
2023/05/03 00:38:37;;;;;;;20.45;19.35;;;;;;;;;;5056122;28;20430;-80
2023/05/03 00:41:04;;;;;;;20.77;19.77;;;;;;;;;;5056719;28;20204;-80
2023/05/03 00:43:32;;;;;;;20.97;19.87;;;;;;;;;;5055972;28;20483;-79
2023/05/03 00:46:00;;;;;;;20.00;19.00;;;;;;;;;;5055609;28;20572;-79
2023/05/03 00:48:27;;;;;;;21.00;19.70;;;;;;;;;;5055983;28;20487;-79
2023/05/03 00:50:54;;;;;;;21.10;19.57;;;;;;;;;;5056803;28;20477;-79
2023/05/03 00:53:22;;;;;;;20.50;19.40;;;;;;;;;;5055293;28;20451;-78
2023/05/03 00:55:49;;;;;;;21.50;20.00;;;;;;;;;;5052542;28;20425;-78
2023/05/03 00:58:16;;;;;;;21.33;20.03;;;;;;;;;;5053209;28;20441;-79
2023/05/03 01:00:44;;;;;;;21.60;20.10;;;;;;;;;;5053606;28;20470;-78
2023/05/03 01:03:12;;;;;;;20.35;19.10;;;;;;;;;;5053640;28;20208;-78
2023/05/03 01:05:44;;;;;;;20.40;19.37;;;;;;;;;;5053006;28;20208;-79
2023/05/03 01:08:13;;;;;;;19.97;18.87;;;;;;;;;;5053846;28;20486;-78
2023/05/03 01:10:47;;;;;;;21.75;20.00;;;;;;;;;;5053656;28;20445;-79
2023/05/03 01:13:17;;;;;;;20.73;19.20;;;;;;;;;;5053923;28;20595;-78
2023/05/03 01:15:51;;;;;;;20.98;19.42;;;;;;;;;;5053488;28;20432;-79
2023/05/03 01:18:21;;;;;;;20.40;19.27;;;;;;;;;;5054139;28;20207;-78
2023/05/03 01:20:49;;;;;;;20.60;19.40;;;;;;;;;;5054385;28;20858;-78
2023/05/03 01:23:22;;;;;;;20.53;19.33;;;;;;;;;;5054122;28;20557;-79
2023/05/03 01:25:53;;;;;;;20.00;18.80;;;;;;;;;;5054608;28;20429;-78
2023/05/03 01:28:20;;;;;;;20.50;19.00;;;;;;;;;;5057284;28;21032;-79
2023/05/03 01:30:49;;;;;;;20.30;19.27;;;;;;;;;;5057977;28;20208;-78
2023/05/03 01:33:21;;;;;;;20.17;19.17;;;;;;;;;;5058640;28;20500;-79
2023/05/03 01:35:53;;;;;;;20.77;19.60;;;;;;;;;;5057292;28;20425;-79
2023/05/03 01:38:21;;;;;;;21.00;19.90;;;;;;;;;;5057340;28;20437;-79
2023/05/03 01:40:50;;;;;;;20.83;19.43;;;;;;;;;;5058338;28;20208;-79
2023/05/03 01:43:19;;;;;;;20.37;19.27;;;;;;;;;;5058007;28;20496;-79
2023/05/03 01:45:46;;;;;;;20.80;19.60;;;;;;;;;;5057802;28;20443;-79
2023/05/03 01:48:15;;;;;;;20.70;19.33;;;;;;;;;;5058166;28;20521;-79
2023/05/03 01:50:42;;;;;;;21.40;20.27;;;;;;;;;;5058076;28;20231;-78
2023/05/03 01:53:09;;;;;;;20.47;19.20;;;;;;;;;;5058108;28;20475;-80
2023/05/03 01:55:36;;;;;;;21.00;19.90;;;;;;;;;;5057962;28;20450;-79
2023/05/03 01:58:03;;;;;;;23.67;20.17;;;;;;;;;;5058112;28;20515;-79
2023/05/03 02:00:31;;;;;;;20.10;19.10;;;;;;;;;;5057870;28;20453;-78
2023/05/03 02:02:58;;;;;;;20.63;19.60;;;;;;;;;;5057836;28;20483;-78
2023/05/03 02:05:25;;;;;;;20.40;19.10;;;;;;;;;;5058357;28;20584;-78
2023/05/03 02:07:52;;;;;;;20.60;19.37;;;;;;;;;;5057133;28;20526;-79
2023/05/03 02:10:19;;;;;;;20.30;18.90;;;;;;;;;;5057835;28;20499;-79
2023/05/03 02:12:46;;;;;;;21.20;19.80;;;;;;;;;;5058275;28;20425;-79
2023/05/03 02:15:13;;;;;;;20.10;19.10;;;;;;;;;;5058156;28;20442;-79
2023/05/03 02:17:42;;;;;;;21.77;20.27;;;;;;;;;;5058328;28;20804;-80
2023/05/03 02:20:10;;;;;;;20.37;19.37;;;;;;;;;;5058274;28;20912;-79
2023/05/03 02:22:37;;;;;;;19.23;18.00;;;;;;;;;;5058695;28;20433;-79
2023/05/03 02:25:05;;;;;;;19.63;18.47;;;;;;;;;;5059129;28;20422;-79
2023/05/03 02:27:32;;;;;;;21.73;19.90;;;;;;;;;;5057949;28;20463;-80
2023/05/03 02:29:59;;;;;;;21.47;19.87;;;;;;;;;;5057606;28;20532;-80
2023/05/03 02:32:26;;;;;;;20.40;19.27;;;;;;;;;;5058642;28;20450;-79
2023/05/03 02:34:54;;;;;;;20.30;19.20;;;;;;;;;;5057567;28;20458;-78
2023/05/03 02:37:21;;;;;;;22.05;19.55;;;;;;;;;;5055805;28;20432;-79
2023/05/03 02:39:48;;;;;;;20.70;19.30;;;;;;;;;;5055506;28;20658;-77
2023/05/03 02:42:15;;;;;;;20.58;19.45;;;;;;;;;;5056446;28;20457;-80
2023/05/03 02:44:45;;;;;;;20.48;18.95;;;;;;;;;;5056856;28;20226;-77
2023/05/03 02:47:12;;;;;;;20.80;19.50;;;;;;;;;;5055525;28;20200;-77
2023/05/03 02:49:39;;;;;;;20.50;19.20;;;;;;;;;;5054830;28;21152;-77
2023/05/03 02:52:07;;;;;;;21.83;19.98;;;;;;;;;;5055629;28;20424;-77
2023/05/03 02:54:34;;;;;;;20.83;19.63;;;;;;;;;;5055443;28;20295;-77
2023/05/03 02:57:03;;;;;;;20.95;19.67;;;;;;;;;;5054602;28;20450;-78
2023/05/03 02:59:31;;;;;;;20.50;19.40;;;;;;;;;;5050759;28;20905;-78
2023/05/03 03:01:58;;;;;;;21.33;19.60;;;;;;;;;;5055528;28;20711;-77
2023/05/03 03:04:25;;;;;;;21.50;20.25;;;;;;;;;;5056957;28;20426;-77
2023/05/03 03:06:53;;;;;;;21.92;20.52;;;;;;;;;;5055928;28;20206;-78
2023/05/03 03:09:21;;;;;;;20.75;19.60;;;;;;;;;;5055266;28;20242;-79
2023/05/03 03:11:48;;;;;;;19.80;18.70;;;;;;;;;;5055185;28;20668;-78
2023/05/03 03:14:15;;;;;;;21.42;19.73;;;;;;;;;;5055998;28;20207;-79
2023/05/03 03:16:42;;;;;;;20.02;18.75;;;;;;;;;;5055822;28;20338;-77
2023/05/03 03:19:09;;;;;;;20.52;19.33;;;;;;;;;;5059484;28;20277;-78
2023/05/03 03:21:36;;;;;;;21.05;19.75;;;;;;;;;;5058832;28;20204;-77
2023/05/03 03:24:03;;;;;;;21.00;19.67;;;;;;;;;;5059214;28;20612;-77
2023/05/03 03:26:31;;;;;;;20.98;19.48;;;;;;;;;;5053917;28;20466;-78
2023/05/03 03:28:58;;;;;;;22.02;20.73;;;;;;;;;;5054708;28;20231;-78
2023/05/03 03:31:25;;;;;;;20.93;19.63;;;;;;;;;;5055020;28;20207;-78
2023/05/03 03:33:53;;;;;;;20.77;19.48;;;;;;;;;;5054727;28;20458;-78
2023/05/03 03:36:20;;;;;;;21.10;19.90;;;;;;;;;;5053279;28;20253;-78
2023/05/03 03:38:47;;;;;;;22.52;21.17;;;;;;;;;;5054257;28;20228;-77
2023/05/03 03:41:14;;;;;;;22.52;21.17;;;;;;;;;;5054531;28;20237;-77
2023/05/03 03:43:42;;;;;;;20.70;19.50;;;;;;;;;;5054580;28;20204;-77
2023/05/03 03:46:10;;;;;;;20.40;19.40;;;;;;;;;;5053529;28;20223;-78
2023/05/03 03:48:37;;;;;;;21.00;19.35;;;;;;;;;;5053264;28;20281;-77
2023/05/03 03:51:04;;;;;;;21.20;19.77;;;;;;;;;;5054320;28;20200;-77
2023/05/03 03:53:31;;;;;;;21.85;20.60;;;;;;;;;;5053811;28;20200;-78
2023/05/03 03:55:58;;;;;;;21.38;20.17;;;;;;;;;;5053046;28;20285;-78
2023/05/03 03:58:25;;;;;;;21.48;20.13;;;;;;;;;;5053630;28;20262;-76
2023/05/03 04:00:53;;;;;;;21.60;20.38;;;;;;;;;;5053062;28;20204;-76
2023/05/03 04:03:20;;;;;;;30.00;27.40;;;;;;;;;;5053260;28;20212;-76
2023/05/03 04:05:47;;;;;;;20.88;19.77;;;;;;;;;;5052124;28;20611;-76
2023/05/03 04:08:14;;;;;;;22.45;21.05;;;;;;;;;;5053035;28;20212;-76
2023/05/03 04:10:41;;;;;;;23.23;21.83;;;;;;;;;;5053039;28;20709;-76
2023/05/03 04:13:08;;;;;;;25.13;23.33;;;;;;;;;;5053188;28;20599;-76
2023/05/03 04:15:35;;;;;;;24.00;22.50;;;;;;;;;;5052596;28;20489;-76
2023/05/03 04:18:04;;;;;;;24.20;22.67;;;;;;;;;;5052558;28;20618;-75
2023/05/03 04:20:32;;;;;;;24.73;23.05;;;;;;;;;;5052831;28;20482;-76
2023/05/03 04:23:00;;;;;;;24.98;23.30;;;;;;;;;;5053224;28;20208;-76
2023/05/03 04:25:27;;;;;;;22.60;21.27;;;;;;;;;;5053120;28;20200;-76
2023/05/03 04:27:54;;;;;;;22.58;21.27;;;;;;;;;;5052278;28;20914;-76
2023/05/03 04:30:22;;;;;;;22.33;20.83;;;;;;;;;;5052051;28;20239;-76
2023/05/03 04:32:49;;;;;;;23.65;22.13;;;;;;;;;;5052651;28;20258;-76
2023/05/03 04:35:17;;;;;;;22.95;21.65;;;;;;;;;;5052350;28;20667;-76
2023/05/03 04:37:44;;;;;;;23.00;21.00;;;;;;;;;;5051896;28;20212;-76
2023/05/03 04:40:12;;;;;;;22.77;21.25;;;;;;;;;;5051952;28;20260;-76
2023/05/03 04:42:39;;;;;;;23.08;21.67;;;;;;;;;;5053170;28;20214;-78
2023/05/03 04:45:08;;;;;;;21.80;20.40;;;;;;;;;;5052700;28;20204;-75
2023/05/03 04:47:35;;;;;;;22.80;21.13;;;;;;;;;;5052509;28;20459;-75
2023/05/03 04:50:02;;;;;;;20.92;19.73;;;;;;;;;;5051567;28;20571;-76
2023/05/03 04:52:31;;;;;;;20.95;19.85;;;;;;;;;;5052464;28;20208;-75
2023/05/03 04:54:58;;;;;;;22.15;20.90;;;;;;;;;;5052485;28;20222;-75
2023/05/03 04:57:25;;;;;;;21.75;20.45;;;;;;;;;;5052121;28;20250;-76
2023/05/03 04:59:53;;;;;;;20.77;19.63;;;;;;;;;;5053850;28;20220;-76
2023/05/03 05:02:21;;;;;;;21.50;20.27;;;;;;;;;;5057401;28;20449;-78
2023/05/03 05:04:48;;;;;;;20.93;19.83;;;;;;;;;;5058074;28;20425;-78
2023/05/03 05:07:15;;;;;;;22.00;20.70;;;;;;;;;;5057742;28;20421;-78
2023/05/03 05:09:44;;;;;;;22.38;20.77;;;;;;;;;;5057808;28;20228;-78
2023/05/03 05:12:11;;;;;;;22.52;21.20;;;;;;;;;;5056880;28;20208;-78
2023/05/03 05:14:38;;;;;;;21.42;20.05;;;;;;;;;;5057555;28;20200;-78
2023/05/03 05:17:05;;;;;;;22.38;20.77;;;;;;;;;;5056576;28;20212;-76
2023/05/03 05:19:32;;;;;;;20.17;19.13;;;;;;;;;;5056186;28;20220;-76
2023/05/03 05:22:00;;;;;;;20.57;19.37;;;;;;;;;;5056542;28;20477;-76
2023/05/03 05:24:27;;;;;;;21.63;20.40;;;;;;;;;;5055825;28;20800;-76
2023/05/03 05:26:55;;;;;;;20.52;19.20;;;;;;;;;;5055890;28;20455;-76
2023/05/03 05:29:22;;;;;;;20.60;19.30;;;;;;;;;;5056070;28;20696;-76
2023/05/03 05:31:49;;;;;;;20.83;19.73;;;;;;;;;;5056325;28;20660;-79
2023/05/03 05:34:16;;;;;;;21.37;20.03;;;;;;;;;;5056199;28;20425;-76
2023/05/03 05:36:43;;;;;;;21.57;20.37;;;;;;;;;;5054801;28;20478;-75
2023/05/03 05:39:10;;;;;;;20.07;18.90;;;;;;;;;;5056118;28;20445;-77
2023/05/03 05:41:38;;;;;;;21.40;19.90;;;;;;;;;;5056114;28;20458;-75
2023/05/03 05:44:06;;;;;;;20.07;19.07;;;;;;;;;;5056051;28;20417;-75
2023/05/03 05:46:33;;;;;;;20.40;18.90;;;;;;;;;;5054865;28;20466;-75
2023/05/03 05:49:00;;;;;;;20.33;19.20;;;;;;;;;;5055737;28;20519;-77
2023/05/03 05:51:29;;;;;;;20.88;19.77;;;;;;;;;;5055612;28;20475;-75
2023/05/03 05:53:56;;;;;;;21.30;20.00;;;;;;;;;;5055832;28;20211;-75
2023/05/03 05:56:23;;;;;;;19.70;18.70;;;;;;;;;;5055216;28;20845;-75
2023/05/03 05:58:50;;;;;;;19.80;18.83;;;;;;;;;;5055116;28;20445;-75
2023/05/03 06:01:18;;;;;;;19.90;18.80;;;;;;;;;;5055750;28;20203;-75
2023/05/03 06:03:45;;;;;;;20.60;19.40;;;;;;;;;;5055635;28;20502;-75
2023/05/03 06:06:13;;;;;;;22.00;20.60;;;;;;;;;;5054936;28;20533;-76
2023/05/03 06:08:40;;;;;;;21.13;19.80;;;;;;;;;;5055406;28;20476;-77
2023/05/03 06:11:07;;;;;;;21.63;20.43;;;;;;;;;;5054358;28;20942;-75
2023/05/03 06:13:37;;;;;;;20.23;19.23;;;;;;;;;;5055431;28;20459;-75
2023/05/03 06:16:04;;;;;;;20.87;19.63;;;;;;;;;;5054699;28;20475;-75
2023/05/03 06:18:32;;;;;;;20.60;19.30;;;;;;;;;;5055060;28;20421;-75
2023/05/03 06:20:59;;;;;;;21.13;19.87;;;;;;;;;;5055418;28;20494;-76
2023/05/03 06:23:26;;;;;;;20.40;19.10;;;;;;;;;;5055407;28;20452;-77
2023/05/03 06:25:53;;;;;;;21.30;20.03;;;;;;;;;;5053976;28;20458;-76
2023/05/03 06:28:20;;;;;;;21.30;20.10;;;;;;;;;;5055591;28;20498;-77
2023/05/03 06:30:49;;;;;;;21.67;20.03;;;;;;;;;;5054855;28;20532;-76
2023/05/03 06:33:16;;;;;;;20.47;19.37;;;;;;;;;;5055096;28;20458;-76
2023/05/03 06:35:45;;;;;;;21.00;19.70;;;;;;;;;;5054679;28;20487;-76
2023/05/03 06:38:13;;;;;;;21.60;20.20;;;;;;;;;;5054872;28;20414;-76
2023/05/03 06:40:40;;;;;;;21.90;20.60;;;;;;;;;;5054766;28;20467;-76
2023/05/03 06:43:07;;;;;;;22.47;21.00;;;;;;;;;;5054478;28;20432;-75
2023/05/03 06:45:34;;;;;;;22.50;21.30;;;;;;;;;;5054338;28;20417;-75
2023/05/03 06:48:02;;;;;;;23.53;21.60;;;;;;;;;;5054201;28;20489;-75
2023/05/03 06:50:29;;;;;;;22.60;21.00;;;;;;;;;;5054383;28;20482;-76
2023/05/03 06:52:57;;;;;;;22.57;21.27;;;;;;;;;;5054773;28;20496;-76
2023/05/03 06:55:24;;;;;;;22.17;20.87;;;;;;;;;;5054186;28;20451;-75
2023/05/03 06:57:52;;;;;;;21.97;20.87;;;;;;;;;;5053665;28;20441;-76
2023/05/03 07:00:20;;;;;;;22.20;21.00;;;;;;;;;;5054238;28;20962;-75
2023/05/03 07:02:47;;;;;;;21.93;20.83;;;;;;;;;;5056122;28;20890;-80
2023/05/03 07:05:14;;;;;;;21.70;20.50;;;;;;;;;;5055477;28;20417;-76
2023/05/03 07:07:41;;;;;;;20.70;19.50;;;;;;;;;;5052928;28;20538;-76
2023/05/03 07:10:11;;;;;;;21.57;20.37;;;;;;;;;;5051897;28;20465;-76
2023/05/03 07:12:37;;;;;;;21.50;20.40;;;;;;;;;;5053421;28;20425;-76
2023/05/03 07:15:05;;;;;;;20.47;19.00;;;;;;;;;;5053825;28;20956;-76
2023/05/03 07:17:32;;;;;;;21.60;20.30;;;;;;;;;;5055699;28;20429;-77
2023/05/03 07:19:59;;;;;;;20.70;19.60;;;;;;;;;;5053792;28;20461;-76
2023/05/03 07:22:26;;;;;;;22.00;20.60;;;;;;;;;;5054328;28;20446;-77
2023/05/03 07:24:56;;;;;;;21.57;20.27;;;;;;;;;;5054144;28;20487;-77
2023/05/03 07:27:24;;;;;;;22.13;20.73;;;;;;;;;;5053645;28;20472;-76
2023/05/03 07:29:51;;;;;;;21.90;20.70;;;;;;;;;;5054548;28;20458;-84
2023/05/03 07:32:20;;;;;;;22.03;20.80;;;;;;;;;;5055196;28;20414;-77
2023/05/03 07:34:47;;;;;;;21.30;20.10;;;;;;;;;;5053999;28;20437;-76
2023/05/03 07:37:14;;;;;;;23.77;21.50;;;;;;;;;;5053371;28;20414;-77
2023/05/03 07:39:42;;;;;;;21.87;20.47;;;;;;;;;;5053845;28;20513;-76
2023/05/03 07:42:09;;;;;;;22.13;20.87;;;;;;;;;;5053240;28;20466;-76
2023/05/03 07:44:37;;;;;;;22.30;21.20;;;;;;;;;;5053907;28;20471;-76
2023/05/03 07:47:04;;;;;;;23.30;21.80;;;;;;;;;;5053380;28;20471;-76
2023/05/03 07:49:34;;;;;;;22.20;20.90;;;;;;;;;;5053285;28;20560;-76
2023/05/03 07:52:02;;;;;;;23.80;22.50;;;;;;;;;;5053441;28;20437;-76
2023/05/03 07:54:29;;;;;;;23.80;22.30;;;;;;;;;;5054207;28;20429;-77
2023/05/03 07:56:56;;;;;;;23.40;22.13;;;;;;;;;;5053280;28;21012;-76
2023/05/03 07:59:23;;;;;;;22.50;21.20;;;;;;;;;;5053514;28;20520;-77
2023/05/03 08:01:51;;;;;;;23.67;22.17;;;;;;;;;;5053300;28;20429;-77
2023/05/03 08:04:19;;;;;;;23.07;21.63;;;;;;;;;;5052604;28;20913;-77
2023/05/03 08:06:46;;;;;;;24.17;22.10;;;;;;;;;;5052202;28;20986;-76
2023/05/03 08:09:14;;;;;;;22.53;21.37;;;;;;;;;;5052892;28;20890;-76
2023/05/03 08:11:41;;;;;;;23.13;21.73;;;;;;;;;;5053008;28;20434;-76
2023/05/03 08:14:08;;;;;;;23.17;21.87;;;;;;;;;;5053391;28;20473;-77
2023/05/03 08:16:35;;;;;;;22.00;20.83;;;;;;;;;;5052123;28;20449;-77
2023/05/03 08:19:04;;;;;;;22.97;21.60;;;;;;;;;;5053146;28;20440;-77
2023/05/03 08:21:32;;;;;;;24.13;22.50;;;;;;;;;;5053241;28;20425;-76
2023/05/03 08:23:59;;;;;;;24.33;22.97;;;;;;;;;;5053084;28;20451;-77
2023/05/03 08:26:27;;;;;;;22.90;21.60;;;;;;;;;;5052477;28;20588;-76
2023/05/03 08:28:54;;;;;;;23.10;21.80;;;;;;;;;;5055136;28;20479;-76
2023/05/03 08:31:21;;;;;;;23.63;22.40;;;;;;;;;;5052923;28;20486;-76
2023/05/03 08:33:48;;;;;;;22.70;21.40;;;;;;;;;;5053070;28;20450;-76
2023/05/03 08:36:16;;;;;;;22.77;21.13;;;;;;;;;;5055447;28;20512;-78
2023/05/03 08:38:43;;;;;;;23.27;21.73;;;;;;;;;;5056033;28;20466;-78
2023/05/03 08:41:15;;;;;;;22.40;21.07;;;;;;;;;;5056284;28;20542;-78
2023/05/03 08:43:44;;;;;;;22.17;20.87;;;;;;;;;;5055807;28;20412;-78
2023/05/03 08:46:12;;;;;;;23.80;22.30;;;;;;;;;;5055442;28;20455;-77
2023/05/03 08:48:39;;;;;;;23.30;21.60;;;;;;;;;;5055439;28;20466;-77
2023/05/03 08:51:09;;;;;;;23.73;22.13;;;;;;;;;;5055505;28;20809;-78
2023/05/03 08:53:37;;;;;;;23.90;22.40;;;;;;;;;;5056185;28;20498;-78
2023/05/03 08:56:08;;;;;;;23.43;22.03;;;;;;;;;;5055031;28;20431;-78
2023/05/03 08:58:36;;;;;;;24.33;22.93;;;;;;;;;;5053448;28;20454;-78
2023/05/03 09:01:04;;;;;;;25.23;23.50;;;;;;;;;;5053877;28;20537;-78
2023/05/03 09:03:31;;;;;;;23.80;22.30;;;;;;;;;;5052765;28;20938;-77
2023/05/03 09:06:00;;;;;;;22.90;21.40;;;;;;;;;;5052643;28;20500;-77
2023/05/03 09:08:28;;;;;;;22.70;21.40;;;;;;;;;;5053348;28;20458;-77
2023/05/03 09:10:56;;;;;;;23.83;22.13;;;;;;;;;;5053563;28;20482;-78
2023/05/03 09:13:30;;;;;;;21.37;20.20;;;;;;;;;;5052074;28;20448;-77
2023/05/03 09:15:57;;;;;;;23.87;22.17;;;;;;;;;;5052979;28;20431;-77
2023/05/03 09:18:25;;;;;;;23.87;22.47;;;;;;;;;;5052984;28;20425;-77
2023/05/03 09:20:53;;;;;;;25.00;22.97;;;;;;;;;;5053550;28;20447;-77
2023/05/03 09:23:29;;;;;;;23.40;22.10;;;;;;;;;;5052980;28;20944;-78
2023/05/03 09:25:58;;;;;;;24.40;22.90;;;;;;;;;;5055047;28;20497;-78
2023/05/03 09:28:26;;;;;;;25.40;23.97;;;;;;;;;;5056226;28;20457;-77
2023/05/03 09:31:05;;;;;;;23.67;22.47;;;;;;;;;;5055646;28;20578;-78
2023/05/03 09:33:32;;;;;;;25.00;23.70;;;;;;;;;;5053407;28;20441;-78
2023/05/03 09:36:00;;;;;;;24.37;22.73;;;;;;;;;;5051842;28;20448;-77
2023/05/03 09:38:27;;;;;;;24.30;22.90;;;;;;;;;;5052688;28;20489;-77
2023/05/03 09:40:54;;;;;;;23.47;22.17;;;;;;;;;;5053095;28;20512;-78
2023/05/03 09:43:23;;;;;;;24.37;22.80;;;;;;;;;;5052999;28;21000;-77
2023/05/03 09:45:50;;;;;;;23.87;22.27;;;;;;;;;;5052033;28;20967;-78
2023/05/03 09:48:21;;;;;;;24.70;23.10;;;;;;;;;;5056260;28;20442;-77
2023/05/03 09:50:49;;;;;;;24.00;22.70;;;;;;;;;;5058977;28;20470;-78
2023/05/03 09:53:17;;;;;;;24.50;23.10;;;;;;;;;;5057672;28;20432;-77
2023/05/03 09:55:46;;;;;;;24.83;23.17;;;;;;;;;;5055686;28;20569;-77
2023/05/03 09:58:13;;;;;;;23.63;22.07;;;;;;;;;;5055804;28;20904;-77
2023/05/03 10:00:46;;;;;;;24.20;22.70;;;;;;;;;;5056580;28;20471;-76
2023/05/03 10:03:18;;;;;;;23.30;21.83;;;;;;;;;;5055987;28;20485;-77
2023/05/03 10:05:47;;;;;;;23.07;21.77;;;;;;;;;;5055609;28;20538;-77
2023/05/03 10:08:19;;;;;;;24.27;22.77;;;;;;;;;;5055430;28;20507;-77
2023/05/03 10:10:49;;;;;;;24.27;22.63;;;;;;;;;;5056997;28;20853;-77
2023/05/03 10:13:17;;;;;;;23.80;22.30;;;;;;;;;;5056847;28;20417;-77
2023/05/03 10:15:46;;;;;;;24.03;22.60;;;;;;;;;;5056309;28;20425;-77
2023/05/03 10:18:15;;;;;;;25.00;23.50;;;;;;;;;;5056729;28;20447;-77
2023/05/03 10:20:45;;;;;;;25.17;23.63;;;;;;;;;;5056860;28;20463;-77
2023/05/03 10:23:14;;;;;;;24.20;22.77;;;;;;;;;;5059981;28;20446;-79
2023/05/03 10:25:48;;;;;;;22.70;21.40;;;;;;;;;;5060201;28;20455;-78
2023/05/03 10:28:14;;;;;;;23.73;22.33;;;;;;;;;;5062838;28;20492;-80
2023/05/03 10:30:41;;;;;;;24.43;23.13;;;;;;;;;;5055514;28;20490;-77
2023/05/03 10:33:26;;;;;;;25.13;23.53;;;;;;;;;;5055190;28;20931;-77
2023/05/03 10:35:55;;;;;;;24.53;23.03;;;;;;;;;;5054535;28;20450;-77
2023/05/03 10:38:23;;;;;;;25.40;23.93;;;;;;;;;;5055163;28;20906;-76
2023/05/03 10:40:50;;;;;;;25.10;23.50;;;;;;;;;;5054643;28;20462;-78
2023/05/03 10:43:36;;;;;;;23.50;22.20;;;;;;;;;;5054970;28;20438;-77
2023/05/03 10:46:04;;;;;;;24.30;22.97;;;;;;;;;;5054873;28;20446;-78
2023/05/03 10:48:32;;;;;;;24.60;23.20;;;;;;;;;;5055050;28;20439;-76
2023/05/03 10:51:20;;;;;;;25.07;23.43;;;;;;;;;;5054131;28;20456;-77
2023/05/03 10:53:49;;;;;;;24.60;23.10;;;;;;;;;;5054414;28;20928;-77
2023/05/03 10:56:16;;;;;;;26.17;24.77;;;;;;;;;;5056462;28;20853;-77
2023/05/03 10:58:44;;;;;;;25.03;23.30;;;;;;;;;;5056046;28;20474;-77
2023/05/03 11:01:11;;;;;;;25.57;24.07;;;;;;;;;;5056020;28;20459;-78
2023/05/03 11:03:43;;;;;;;25.90;23.90;;;;;;;;;;5055579;28;20966;-77
2023/05/03 11:06:10;;;;;;;23.90;22.60;;;;;;;;;;5055258;28;20443;-76
2023/05/03 11:08:37;;;;;;;23.67;22.10;;;;;;;;;;5056002;28;20509;-77
2023/05/03 11:11:08;;;;;;;24.87;23.27;;;;;;;;;;5057450;28;20475;-77
2023/05/03 11:13:36;;;;;;;24.07;22.63;;;;;;;;;;5054726;28;20520;-77
2023/05/03 11:16:03;;;;;;;24.90;23.40;;;;;;;;;;5054106;28;20463;-77
2023/05/03 11:18:30;;;;;;;24.87;23.47;;;;;;;;;;5054683;28;20447;-76
2023/05/03 11:20:57;;;;;;;23.70;22.27;;;;;;;;;;5054418;28;20850;-77
2023/05/03 11:23:25;;;;;;;24.00;22.70;;;;;;;;;;5054531;28;20425;-77
2023/05/03 11:25:52;;;;;;;24.07;22.37;;;;;;;;;;5053944;28;20417;-77
2023/05/03 11:28:21;;;;;;;24.70;23.23;;;;;;;;;;5055351;28;20464;-77
2023/05/03 11:30:48;;;;;;;25.67;23.37;;;;;;;;;;5055991;28;20466;-78
2023/05/03 11:33:15;;;;;;;23.97;22.57;;;;;;;;;;5056047;28;20508;-78
2023/05/03 11:35:42;;;;;;;23.77;22.37;;;;;;;;;;5055573;28;20433;-77
2023/05/03 11:38:09;;;;;;;25.27;23.70;;;;;;;;;;5055662;28;21084;-77
2023/05/03 11:40:38;;;;;;;24.67;23.27;;;;;;;;;;5055220;28;20463;-78
2023/05/03 11:43:06;;;;;;;23.67;22.00;;;;;;;;;;5056007;28;20471;-77
2023/05/03 11:45:42;;;;;;;24.47;22.97;;;;;;;;;;5055469;28;20515;-78
2023/05/03 11:48:10;;;;;;;24.17;22.73;;;;;;;;;;5054101;28;20533;-78
2023/05/03 11:50:46;;;;;;;24.13;22.43;;;;;;;;;;5053338;28;20509;-77
2023/05/03 11:53:13;;;;;;;23.33;22.03;;;;;;;;;;5053874;28;20421;-77
2023/05/03 11:55:42;;;;;;;24.40;22.87;;;;;;;;;;5053286;28;20429;-77
2023/05/03 11:58:10;;;;;;;24.03;22.40;;;;;;;;;;5053942;28;20454;-77
2023/05/03 12:00:40;;;;;;;24.67;23.17;;;;;;;;;;5053180;28;20461;-77
2023/05/03 12:03:07;;;;;;;23.77;22.17;;;;;;;;;;5053716;28;20500;-77
2023/05/03 12:05:34;;;;;;;23.97;22.37;;;;;;;;;;5053327;28;20504;-77
2023/05/03 12:08:01;;;;;;;24.60;23.03;;;;;;;;;;5053873;28;20562;-77
2023/05/03 12:10:32;;;;;;;23.90;22.60;;;;;;;;;;5051976;28;20802;-77
2023/05/03 12:13:00;;;;;;;24.00;22.60;;;;;;;;;;5053488;28;20413;-76
2023/05/03 12:15:28;;;;;;;24.97;22.97;;;;;;;;;;5053338;28;20454;-77
2023/05/03 12:17:57;;;;;;;24.10;22.43;;;;;;;;;;5052922;28;20943;-77
2023/05/03 12:20:25;;;;;;;25.13;23.43;;;;;;;;;;5053391;28;20499;-77
2023/05/03 12:22:52;;;;;;;26.17;24.67;;;;;;;;;;5052885;28;20464;-78
2023/05/03 12:25:22;;;;;;;25.40;23.90;;;;;;;;;;5053875;28;20442;-77
2023/05/03 12:27:49;;;;;;;25.00;23.30;;;;;;;;;;5052948;28;20451;-77
2023/05/03 12:30:16;;;;;;;24.37;22.87;;;;;;;;;;5052449;28;20458;-77
2023/05/03 12:32:43;;;;;;;24.70;23.20;;;;;;;;;;5052904;28;20865;-77
2023/05/03 12:35:11;;;;;;;25.73;24.00;;;;;;;;;;5053199;28;20462;-77
2023/05/03 12:37:38;;;;;;;25.00;23.50;;;;;;;;;;5055022;28;20496;-77
2023/05/03 12:40:06;;;;;;;25.40;23.77;;;;;;;;;;5055049;28;20495;-77
2023/05/03 12:42:33;;;;;;;23.10;21.80;;;;;;;;;;5054909;28;20463;-78
2023/05/03 12:45:00;;;;;;;25.20;23.70;;;;;;;;;;5052927;28;20505;-79
2023/05/03 12:47:27;;;;;;;24.87;23.03;;;;;;;;;;5051637;28;20445;-77
2023/05/03 12:49:54;;;;;;;25.57;23.97;;;;;;;;;;5053247;28;20499;-77
2023/05/03 12:52:23;;;;;;;24.00;22.47;;;;;;;;;;5053297;28;20489;-77
2023/05/03 12:54:50;;;;;;;23.80;22.20;;;;;;;;;;5053033;28;20425;-77
2023/05/03 12:57:17;;;;;;;24.60;23.00;;;;;;;;;;5052647;28;20425;-77
2023/05/03 12:59:44;;;;;;;24.27;22.63;;;;;;;;;;5053109;28;20453;-76
2023/05/03 13:02:12;;;;;;;24.70;23.17;;;;;;;;;;5054305;28;20446;-77
2023/05/03 13:04:39;;;;;;;24.83;23.30;;;;;;;;;;5053526;28;20428;-77
2023/05/03 13:07:07;;;;;;;24.77;23.27;;;;;;;;;;5053862;28;20426;-77
2023/05/03 13:09:35;;;;;;;25.40;23.87;;;;;;;;;;5053538;28;20449;-77
2023/05/03 13:12:02;;;;;;;25.00;23.63;;;;;;;;;;5055263;28;20468;-78
2023/05/03 13:14:29;;;;;;;25.13;23.47;;;;;;;;;;5054520;28;20421;-77
2023/05/03 13:16:56;;;;;;;25.97;24.20;;;;;;;;;;5055735;28;20429;-77
2023/05/03 13:19:23;;;;;;;24.93;23.07;;;;;;;;;;5054804;28;20467;-78
2023/05/03 13:21:50;;;;;;;25.10;23.60;;;;;;;;;;5058178;28;20482;-77
2023/05/03 13:24:17;;;;;;;25.30;23.80;;;;;;;;;;5058843;28;20860;-78
2023/05/03 13:26:46;;;;;;;24.50;23.13;;;;;;;;;;5057729;28;20442;-77
2023/05/03 13:29:13;;;;;;;26.20;24.40;;;;;;;;;;5058463;28;20445;-78
2023/05/03 13:31:41;;;;;;;25.03;23.63;;;;;;;;;;5059901;28;20518;-77
2023/05/03 13:34:08;;;;;;;26.00;24.50;;;;;;;;;;5058879;28;20991;-78
2023/05/03 13:36:35;;;;;;;25.80;23.90;;;;;;;;;;5062421;28;20505;-78
2023/05/03 13:39:02;;;;;;;25.50;23.73;;;;;;;;;;5062579;28;20478;-84
2023/05/03 13:41:30;;;;;;;24.83;23.20;;;;;;;;;;5062007;28;20454;-85
2023/05/03 13:43:58;;;;;;;26.27;24.50;;;;;;;;;;5078413;28;20481;-85
2023/05/03 13:46:25;;;;;;;24.50;23.00;;;;;;;;;;5078722;28;20481;-81
2023/05/03 13:48:55;;;;;;;25.63;23.80;;;;;;;;;;5077598;28;20432;-80
2023/05/03 13:51:23;;;;;;;25.57;23.80;;;;;;;;;;5076745;28;20460;-76
2023/05/03 13:53:50;;;;;;;25.77;23.87;;;;;;;;;;5076156;28;20457;-76
2023/05/03 13:56:17;;;;;;;25.47;23.87;;;;;;;;;;5075543;28;20526;-77
2023/05/03 13:58:44;;;;;;;26.47;24.50;;;;;;;;;;5075907;28;20523;-77
2023/05/03 14:01:12;;;;;;;25.30;23.47;;;;;;;;;;5075846;28;20445;-76
2023/05/03 14:03:39;;;;;;;25.27;23.60;;;;;;;;;;5075645;28;20507;-77
2023/05/03 14:06:07;;;;;;;24.57;23.10;;;;;;;;;;5074559;28;20473;-77
2023/05/03 14:08:34;;;;;;;25.60;23.90;;;;;;;;;;5075562;28;20465;-76
2023/05/03 14:11:01;;;;;;;25.10;23.40;;;;;;;;;;5075989;28;20453;-80
2023/05/03 14:13:29;;;;;;;25.17;23.57;;;;;;;;;;5078923;28;20459;-80
2023/05/03 14:15:56;;;;;;;29.27;26.47;;;;;;;;;;5078562;28;20461;-78
2023/05/03 14:18:24;;;;;;;24.40;22.90;;;;;;;;;;5076555;28;20473;-77
2023/05/03 14:20:51;;;;;;;24.00;22.40;;;;;;;;;;5075978;28;20454;-77